Stations météo

réclame
Mon MeteoGroup
Schmücke, Allemagne (10552): Température de l'air & dewpoint: 15.08.2018 06:00:00 - 21.08.2018 06:00:00 (CEST)Schmücke, Allemagne (10552): Température de l'air 5cm & Température de l'air -5cm: 15.08.2018 06:00:00 - 21.08.2018 06:00:00 (CEST)Schmücke, Allemagne (10552): Température de l'air -20cm & Température de l'air -100cm: 15.08.2018 06:00:00 - 21.08.2018 06:00:00 (CEST)Schmücke, Allemagne (10552): Vitesse du vent & gusts: 15.08.2018 06:00:00 - 21.08.2018 06:00:00 (CEST)Schmücke, Allemagne (10552): Direction du vent: 15.08.2018 06:00:00 - 21.08.2018 06:00:00 (CEST)Schmücke, Allemagne (10552): visibility: 15.08.2018 06:00:00 - 21.08.2018 06:00:00 (CEST)Schmücke, Allemagne (10552): Ensoleillement: 15.08.2018 06:00:00 - 21.08.2018 06:00:00 (CEST)Schmücke, Allemagne (10552): Quantités de précipitations: 15.08.2018 06:00:00 - 21.08.2018 06:00:00 (CEST)
Date & Time tt [°C] td [°C] tt 5cm [°C] tt -5cm [°C] tt -20cm [°C] tt -100cm [°C] ff [km/h] ff [knt] fx [km/h] fx [knt] dd vv [km] sd [min] rr [mm]
21.08.2018 06:00:00 14,1 13,0 13,9 16,3 18,6 17,7 7 4 10 6 NNW 6 0 0,0
21.08.2018 05:00:00 14,2 13,0 13,7 16,3 18,8 17,7 7 4 10 5 N 9 0 0,0
21.08.2018 04:00:00 14,4 13,0 14,0 16,4 19,0 17,7 6 4 13 7 N 10 0 0,0
21.08.2018 03:00:00 14,6 13,0 14,0 16,4 19,3 17,7 9 5 13 7 NNE 12 0 0,0
21.08.2018 02:00:00 13,7 12,6 12,4 16,3 19,6 17,7 9 5 12 6 NNE 10 0 0,0
21.08.2018 01:00:00 13,9 12,3 12,2 17,0 19,9 17,7 8 4 14 7 NNE 15 0 0,0
21.08.2018 00:00:00 14,7 12,4 12,9 17,9 20,1 17,7 9 5 15 8 NNE 28 0 0,0
20.08.2018 23:00:00 15,9 12,7 15,0 18,7 20,3 17,7 8 5 13 7 N 31 0 0,0
20.08.2018 22:00:00 16,1 12,7 15,8 19,1 20,5 17,7 7 4 12 6 NNW 30 0 0,0
20.08.2018 21:00:00 16,7 12,7 16,2 20,0 20,7 17,7 7 4 11 6 N 34 0 0,0
20.08.2018 20:00:00 17,5 12,8 17,2 20,9 20,7 17,7 6 3 11 6 NNE 30 0 0,0
20.08.2018 19:00:00 18,2 12,6 18,5 21,6 20,7 17,7 5 3 18 10 NW 34 0 0,0
20.08.2018 18:00:00 18,1 12,3 18,6 22,0 20,6 17,7 9 5 19 11 WNW 32 0 0,0
20.08.2018 17:00:00 18,6 12,5 19,2 22,6 20,4 17,7 7 4 21 12 WNW 37 0 0,0
20.08.2018 16:00:00 18,6 13,4 19,7 22,9 20,2 17,7 9 5 28 15 WSW 33 1 0,0
20.08.2018 15:00:00 18,4 13,2 20,5 22,4 19,9 17,7 15 8 29 16 WSW 32 0 0,0
20.08.2018 14:00:00 17,8 13,4 19,3 21,8 19,7 17,7 12 6 24 13 WSW 25 0 0,0
20.08.2018 13:00:00 17,4 13,0 18,3 21,9 19,3 17,7 11 6 23 12 WSW 23 0 0,0
20.08.2018 12:00:00 18,3 12,7 20,4 22,6 18,8 17,7 15 8 32 17 WSW 35 40 0,0
20.08.2018 11:00:00 17,7 12,5 21,1 20,0 18,5 17,7 16 9 33 18 W 41 51 0,0
20.08.2018 10:00:00 16,2 12,3 17,2 17,9 18,4 17,7 13 7 29 16 W 24 44 0,0
20.08.2018 09:00:00 16,2 12,3 17,8 16,1 18,5 17,7 10 5 23 12 WSW 26 60 0,0
20.08.2018 08:00:00 14,9 11,7 14,1 15,6 18,8 17,7 10 6 16 9 WSW 32 60 0,0
20.08.2018 07:00:00 13,9 11,6 11,7 15,1 19,1 17,7 9 5 16 9 W 21 13 0,0
20.08.2018 06:00:00 13,9 9,5 10,4 15,4 19,4 17,7 5 3 14 8 WNW 50 0 0,0
20.08.2018 05:00:00 14,8 9,4 11,7 15,8 19,8 17,7 8 4 16 9 WSW 52 0 0,0
20.08.2018 04:00:00 15,3 8,8 11,9 16,4 20,1 17,7 8 5 16 8 WNW 46 0 0,0
20.08.2018 03:00:00 16,5 8,6 13,1 16,9 20,5 17,7 11 6 23 12 W 56 0 0,0
20.08.2018 02:00:00 17,2 8,3 14,0 17,4 20,9 17,7 13 7 23 12 W 59 0 0,0
20.08.2018 01:00:00 17,7 8,7 14,5 18,0 21,4 17,7 13 7 24 13 W 54 0 0,0
20.08.2018 00:00:00 17,5 8,0 14,5 18,8 21,8 17,7 16 9 29 16 W 63 0 0,0
19.08.2018 23:00:00 18,4 7,0 16,1 19,7 22,3 17,7 22 12 29 16 WSW 57 0 0,0
19.08.2018 22:00:00 18,6 8,5 16,0 20,9 22,6 17,7 18 10 24 13 WSW 63 0 0,0
19.08.2018 21:00:00 19,4 8,9 16,9 22,5 22,9 17,7 14 7 25 13 WSW 63 14 0,0
19.08.2018 20:00:00 21,3 9,7 19,2 24,5 23,0 17,7 13 7 32 17 WSW 70 58 0,0
19.08.2018 19:00:00 23,1 9,0 23,2 26,6 22,8 17,7 22 12 40 22 WSW 69 60 0,0
19.08.2018 18:00:00 24,3 8,6 25,2 27,9 22,4 17,7 17 9 38 21 WSW 54 60 0,0
19.08.2018 17:00:00 24,3 7,8 26,0 28,7 21,9 17,7 23 12 42 23 SW 56 60 0,0
19.08.2018 16:00:00 24,4 8,4 26,5 28,7 21,2 17,7 21 12 41 22 SW 75 60 0,0
19.08.2018 15:00:00 24,2 9,2 27,2 28,0 20,4 17,7 16 9 40 22 SW 45 60 0,0
19.08.2018 14:00:00 23,6 9,4 26,7 26,8 19,6 17,7 22 12 33 18 SSW 47 60 0,0
19.08.2018 13:00:00 22,6 8,8 25,5 25,0 18,9 17,7 19 10 33 18 SW 50 60 0,0
19.08.2018 12:00:00 21,8 7,5 24,0 22,8 18,2 17,7 13 7 30 16 SSW 66 60 0,0
19.08.2018 11:00:00 20,7 6,8 22,7 19,9 17,8 17,7 11 6 23 12 SSW 66 60 0,0
19.08.2018 10:00:00 19,5 7,9 20,8 17,1 17,7 17,7 11 6 21 11 SSW 41 60 0,0
19.08.2018 09:00:00 18,0 7,7 18,7 15,3 17,9 17,7 10 5 16 9 SW 65 60 0,0
19.08.2018 08:00:00 16,1 9,0 14,5 14,9 18,1 17,7 10 6 17 9 WSW 43 54 0,0
19.08.2018 07:00:00 14,3 9,8 10,9 14,6 18,4 17,7 9 5 14 7 WSW 54 16 0,0
19.08.2018 06:00:00 14,5 12,8 11,8 14,9 18,6 17,7 6 4 9 5 SW 20 0 0,0
19.08.2018 05:00:00 14,6 12,9 12,1 15,3 18,9 17,7 4 2 8 5 SSW 21 0 0,0
19.08.2018 04:00:00 14,4 12,8 12,5 15,7 19,3 17,7 3 2 9 5 SE 25 0 0,0
19.08.2018 03:00:00 14,9 12,9 12,8 16,1 19,6 17,7 8 4 13 7 NNE 23 0 0,0
19.08.2018 02:00:00 15,3 13,4 13,0 16,5 19,9 17,7 5 3 10 5 S 22 0 0,0
19.08.2018 01:00:00 15,0 13,0 12,8 17,0 20,3 17,7 6 4 10 6 SSE 23 0 0,0
19.08.2018 00:00:00 14,9 11,9 12,8 17,7 20,7 17,7 6 4 9 5 N 37 0 0,0
18.08.2018 23:00:00 15,6 13,5 13,8 18,5 21,0 17,7 7 4 10 5 E 21 0 0,0
18.08.2018 22:00:00 15,9 13,8 14,0 19,5 21,3 17,7 5 3 8 4 E 20 0 0,0
18.08.2018 21:00:00 16,6 13,9 14,9 20,9 21,5 17,7 6 3 12 7 NE 22 12 0,0
18.08.2018 20:00:00 18,8 14,0 17,8 22,8 21,5 17,7 7 4 13 7 NE 33 56 0,0
18.08.2018 19:00:00 19,8 13,8 19,8 24,5 21,2 17,7 6 3 15 8 NNE 33 53 0,0
18.08.2018 18:00:00 19,9 13,9 20,5 25,3 20,8 17,7 8 4 14 8 NNE 29 44 0,0
18.08.2018 17:00:00 20,6 14,9 23,4 24,5 20,5 17,7 9 5 16 9 E 40 37 0,0
18.08.2018 16:00:00 18,7 14,0 19,5 23,2 20,1 17,7 6 3 18 10 NNE 22 10 0,0
18.08.2018 15:00:00 18,4 14,8 21,4 23,2 19,7 17,7 7 4 15 8 NNE 16 19 0,0
18.08.2018 14:00:00 17,3 14,6 19,2 23,2 19,2 17,7 6 3 15 8 NE 14 23 0,0
18.08.2018 13:00:00 16,6 14,2 17,9 22,4 18,7 17,7 9 5 17 9 NNE 11 40 0,0
18.08.2018 12:00:00 15,6 13,6 18,7 20,3 18,4 17,7 8 4 14 8 NNE 7 26 0,0
18.08.2018 11:00:00 14,5 13,2 15,7 18,1 18,2 17,7 5 3 14 8 NNE 4,5 4 0,0
18.08.2018 10:00:00 13,7 13,0 14,5 16,9 18,2 17,7 11 6 18 10 NE 2,7 0 0,0
18.08.2018 09:00:00 13,4 12,9 13,7 15,7 18,4 17,7 9 5 19 10 NNE 2,2 3 0,0
18.08.2018 08:00:00 12,7 12,2 12,4 14,9 18,6 17,7 12 6 21 11 NE 2,8 0 0,0
18.08.2018 07:00:00 12,3 11,7 11,4 14,8 19,0 17,7 12 7 25 13 NE 4,6 0 0,0
18.08.2018 06:00:00 12,5 12,1 11,8 15,3 19,3 17,7 16 9 29 15 NE 1,3 0 0,0
18.08.2018 05:00:00 12,9 12,5 12,3 15,4 19,7 17,7 17 9 29 16 NE 1,1 0 0,0
18.08.2018 04:00:00 12,9 12,4 12,1 15,6 20,1 17,6 19 10 31 17 NE 5 0 0,0
18.08.2018 03:00:00 12,8 12,2 11,9 16,1 20,5 17,7 18 10 31 17 NNE 7 0 0,0
18.08.2018 02:00:00 13,3 12,7 12,8 16,9 21,0 17,7 17 9 33 18 NE 5 0 7,4
18.08.2018 01:00:00 14,1 12,7 13,4 17,7 21,4 17,6 11 6 28 15 N 9 0 0,2
18.08.2018 00:00:00 14,4 13,2 14,2 18,2 21,9 17,6 14 7 28 15 NNE 15 0 0,0
17.08.2018 23:00:00 14,6 13,1 14,0 18,8 22,4 17,7 17 9 29 15 NNE 23 0 0,0
17.08.2018 22:00:00 15,2 13,7 14,6 19,7 23,0 17,7 16 8 27 15 NNE 16 0 0,0
17.08.2018 21:00:00 15,6 13,5 14,7 20,8 23,6 17,7 16 8 26 14 NNE 23 0 0,0
17.08.2018 20:00:00 15,4 13,5 14,7 22,2 24,1 17,7 15 8 30 16 NNE 36 0 11,8
17.08.2018 19:00:00 17,2 14,8 16,2 25,8 24,2 17,7 11 6 29 16 NNE 1,8 0 5,0
17.08.2018 18:00:00 22,9 12,0 23,7 29,2 23,9 17,7 11 6 26 14 NNE 48 4 0,0
17.08.2018 17:00:00 24,7 11,6 29,7 31,2 23,3 17,7 9 5 18 10 NNE 53 46 0,0
17.08.2018 16:00:00 24,2 11,4 30,3 31,0 22,5 17,7 7 4 20 11 NNE 33 41 0,0
17.08.2018 15:00:00 25,2 11,7 31,1 30,6 21,7 17,7 5 3 26 14 SSW 69 50 0,0
17.08.2018 14:00:00 24,0 9,8 25,9 29,4 20,8 17,7 13 7 32 17 SW 56 49 0,0
17.08.2018 13:00:00 24,7 9,7 27,9 27,8 20,0 17,7 17 9 36 20 SW 46 58 0,0
17.08.2018 12:00:00 23,9 9,2 28,2 24,5 19,4 17,7 17 9 34 19 SW 56 60 0,0
17.08.2018 11:00:00 22,4 10,0 25,3 21,8 19,0 17,7 19 10 29 16 SW 54 59 0,0
17.08.2018 10:00:00 21,6 10,5 24,4 19,5 18,8 17,7 16 8 27 15 SW 75 60 0,0
17.08.2018 09:00:00 19,6 10,5 21,7 17,7 18,9 17,7 15 8 22 12 SSW 71 60 0,0
17.08.2018 08:00:00 17,8 10,2 17,9 16,9 19,1 17,7 14 8 21 11 SW 56 58 0,0
17.08.2018 07:00:00 16,6 9,7 14,4 16,4 19,4 17,7 11 6 22 12 SW 59 12 0,0
17.08.2018 06:00:00 16,7 9,7 14,0 16,7 19,7 17,7 12 6 25 14 SW 56 0 0,0
17.08.2018 05:00:00 17,1 9,7 14,9 17,1 20,0 17,7 15 8 23 12 SW 64 0 0,0
17.08.2018 04:00:00 18,0 9,6 15,8 17,6 20,3 17,7 13 7 30 16 SW 53 0 0,0
17.08.2018 03:00:00 18,3 9,4 16,0 18,0 20,7 17,7 13 7 22 12 S 66 0 0,0
17.08.2018 02:00:00 19,0 8,9 17,1 18,5 21,1 17,8 11 6 20 11 S 63 0 0,0
17.08.2018 01:00:00 18,0 9,0 14,2 19,1 21,5 17,8 6 4 9 5 SSW 69 0 0,0
17.08.2018 00:00:00 18,5 9,2 15,1 19,9 21,9 17,8 7 4 9 5 S 54 0 0,0
16.08.2018 23:00:00 18,0 9,1 15,5 20,9 22,3 17,8 4 2 6 3 SSW 68 0 0,0
16.08.2018 22:00:00 18,3 8,9 16,3 22,1 22,6 17,8 5 3 12 7 SW 61 0 0,0
16.08.2018 21:00:00 19,5 9,1 17,1 23,8 22,8 17,8 8 4 14 8 WSW 72 26 0,0
16.08.2018 20:00:00 21,9 9,5 20,2 26,1 22,7 17,8 9 5 22 12 WSW 54 60 0,0
16.08.2018 19:00:00 23,5 10,1 24,9 28,3 22,4 17,9 10 5 24 13 WSW 75 59 0,0
16.08.2018 18:00:00 23,9 9,5 26,2 29,5 21,8 17,9 11 6 30 16 SW 61 59 0,0
16.08.2018 17:00:00 24,0 9,9 27,0 30,1 21,1 17,9 12 6 31 17 SSW 58 60 0,0
16.08.2018 16:00:00 23,7 10,2 27,9 29,9 20,2 17,9 12 7 31 17 SW 56 60 0,0
16.08.2018 15:00:00 23,1 10,5 28,0 28,9 19,2 17,9 19 10 35 19 SW 66 60 0,0
16.08.2018 14:00:00 22,1 10,7 27,6 27,0 18,2 17,9 16 9 30 16 SW 75 60 0,0
16.08.2018 13:00:00 21,0 10,7 25,6 24,7 17,3 17,9 15 8 32 17 SW 38 60 0,0
16.08.2018 12:00:00 19,8 10,7 23,7 21,9 16,6 17,9 15 8 32 18 SW 52 60 0,0
16.08.2018 11:00:00 18,1 10,2 22,2 18,8 16,2 18,0 11 6 34 18 SW 45 60 0,0
16.08.2018 10:00:00 17,2 10,0 20,4 16,0 16,0 18,0 20 11 30 16 SSW 55 60 0,0
16.08.2018 09:00:00 15,6 10,1 17,4 14,0 16,0 18,0 15 8 23 13 SW 39 60 0,0
16.08.2018 08:00:00 13,7 9,1 14,2 13,1 16,1 18,0 13 7 19 10 SW 40 60 0,0
16.08.2018 07:00:00 12,6 8,6 10,8 12,5 16,4 18,0 11 6 17 9 SW 46 21 0,0
16.08.2018 06:00:00 13,0 8,4 10,7 12,6 16,6 18,0 10 5 21 11 SSW 48 0 0,0
16.08.2018 05:00:00 13,1 8,4 10,7 12,8 16,9 18,0 12 6 19 11 SSE 42 0 0,0
16.08.2018 04:00:00 12,7 8,2 10,3 13,1 17,2 18,1 9 5 15 8 SE 36 0 0,0
16.08.2018 03:00:00 12,4 8,2 9,0 13,5 17,5 18,1 9 5 14 7 SE 35 0 0,0
16.08.2018 02:00:00 11,9 8,2 9,7 14,0 17,8 18,1 9 5 12 7 E 35 0 0,0
16.08.2018 01:00:00 12,2 8,3 9,9 14,6 18,2 18,1 9 5 11 6 E 37 0 0,0
16.08.2018 00:00:00 12,7 8,3 10,4 15,2 18,5 18,1 10 5 13 7 NE 36 0 0,0
15.08.2018 23:00:00 12,6 8,3 10,5 16,0 18,8 18,1 10 5 11 6 NNE 33 0 0,0
15.08.2018 22:00:00 12,9 8,4 10,9 17,0 19,1 18,1 7 4 11 6 NW 49 0 0,0
15.08.2018 21:00:00 14,1 8,7 12,1 18,5 19,2 18,2 9 5 11 6 WNW 49 19 0,0
15.08.2018 20:00:00 16,3 8,7 14,6 20,3 19,1 18,2 7 4 14 8 WSW 58 60 0,0
15.08.2018 19:00:00 17,7 9,1 19,7 21,9 18,8 18,2 7 4 21 11 W 52 60 0,0
15.08.2018 18:00:00 18,1 8,7 20,5 22,0 18,4 18,2 15 8 27 15 W 46 41 0,0
15.08.2018 17:00:00 17,2 9,2 19,2 21,7 17,9 18,2 8 4 25 13 W 41 29 0,0
15.08.2018 16:00:00 17,3 9,6 20,4 21,0 17,6 18,2 10 6 29 15 SW 41 26 0,0
15.08.2018 15:00:00 15,7 9,9 18,2 19,1 17,3 18,3 13 7 27 15 WSW 36 3 0,0
15.08.2018 14:00:00 14,6 11,2 15,6 18,3 17,0 18,3 11 6 20 11 SW 27 0 0,0
15.08.2018 13:00:00 14,4 11,1 15,7 18,5 16,7 18,3 10 6 23 13 W 23 19 0,0
15.08.2018 12:00:00 14,0 11,1 15,8 16,8 16,5 18,3 10 6 23 13 W 13 14 0,4
15.08.2018 11:00:00 13,3 11,8 14,0 16,1 16,4 18,3 11 6 22 12 SW 8 0 0,0
15.08.2018 10:00:00 13,1 11,7 14,0 15,3 16,4 18,3 13 7 19 11 SW 9 0 0,0
15.08.2018 09:00:00 12,8 10,9 13,3 14,9 16,3 18,3 10 6 17 9 SW 18 0 0,0
15.08.2018 08:00:00 12,7 10,4 13,3 14,2 16,4 18,3 5 3 11 6 SW 35 0 0,0
15.08.2018 07:00:00 12,4 10,2 12,3 13,9 16,4 18,3 7 4 12 7 W 26 0 0,0
15.08.2018 06:00:00 12,5 10,1 12,2 13,8 16,5 18,4 7 4 15 8 NNW 33 0 0,0

tt = Température de l'air
td = dewpoint
tt 5cm = Température de l'air 5cm
tt -5cm = Température de l'air -5cm
tt -20cm = Température de l'air -20cm
tt -100cm = Température de l'air -100cm
ff = Vitesse du vent
fx = gusts
dd = Direction du vent
vv = visibility
sd = Ensoleillement
rr = Quantités de précipitations

stations d'obs. à proximité